createdAt,value
2022-11-14T00:01:26.660Z,8.59
2022-11-14T00:05:47.591Z,8.58
2022-11-14T00:10:08.291Z,8.56
2022-11-14T00:14:28.598Z,8.58
2022-11-14T00:18:49.499Z,8.64
2022-11-14T00:23:09.760Z,8.67
2022-11-14T00:27:30.247Z,8.72
2022-11-14T00:31:51.405Z,8.71
2022-11-14T00:36:12.138Z,8.77
2022-11-14T00:40:32.272Z,8.84
2022-11-14T00:44:53.040Z,8.86
2022-11-14T00:49:13.115Z,8.72
2022-11-14T00:53:33.667Z,8.72
2022-11-14T00:57:53.901Z,8.70
2022-11-14T01:02:14.411Z,8.51
2022-11-14T01:06:34.389Z,8.59
2022-11-14T01:10:54.879Z,8.59
2022-11-14T01:15:14.972Z,8.61
2022-11-14T01:19:35.559Z,8.63
2022-11-14T01:23:55.568Z,8.59
2022-11-14T01:28:18.402Z,8.68
2022-11-14T01:32:38.449Z,8.56
2022-11-14T01:36:59.216Z,8.59
2022-11-14T01:41:20.155Z,8.56
2022-11-14T01:45:55.629Z,8.52
2022-11-14T01:50:16.280Z,8.53
2022-11-14T01:54:40.028Z,8.54
2022-11-14T01:59:09.039Z,8.46
2022-11-14T02:03:29.805Z,8.56
2022-11-14T02:07:50.043Z,8.40
2022-11-14T02:12:13.322Z,8.40
2022-11-14T02:16:34.315Z,8.41
2022-11-14T02:20:54.661Z,8.22
2022-11-14T02:25:18.330Z,8.22
2022-11-14T02:29:38.893Z,8.43
2022-11-14T02:33:59.271Z,8.23
2022-11-14T02:38:19.766Z,8.32
2022-11-14T02:42:39.879Z,8.31
2022-11-14T02:47:00.364Z,8.29
2022-11-14T02:51:20.418Z,8.21
2022-11-14T02:55:41.230Z,8.11
2022-11-14T03:00:01.345Z,8.16
2022-11-14T03:04:21.700Z,8.22
2022-11-14T03:08:41.824Z,8.21
2022-11-14T03:13:02.496Z,8.22
2022-11-14T03:17:24.664Z,8.27
2022-11-14T03:21:44.868Z,8.21
2022-11-14T03:26:08.084Z,8.31
2022-11-14T03:30:28.333Z,8.31
2022-11-14T03:34:48.341Z,8.26
2022-11-14T03:39:09.230Z,8.29
2022-11-14T03:43:34.556Z,8.29
2022-11-14T03:47:55.533Z,8.36
2022-11-14T03:52:15.810Z,8.37
2022-11-14T03:56:36.911Z,8.25
2022-11-14T04:00:57.236Z,8.15
2022-11-14T04:05:17.680Z,8.18
2022-11-14T04:09:37.849Z,8.26
2022-11-14T04:13:58.468Z,8.21
2022-11-14T04:18:18.852Z,8.25
2022-11-14T04:22:40.075Z,8.21
2022-11-14T04:27:00.387Z,8.26
2022-11-14T04:31:20.917Z,8.17
2022-11-14T04:35:41.187Z,8.18
2022-11-14T04:40:02.811Z,8.22
2022-11-14T04:44:23.132Z,8.08
2022-11-14T04:48:43.206Z,8.26
2022-11-14T04:53:03.243Z,8.25
2022-11-14T04:57:23.637Z,8.36
2022-11-14T05:01:43.701Z,8.27
2022-11-14T05:06:04.543Z,8.27
2022-11-14T05:10:24.846Z,8.23
2022-11-14T05:14:45.430Z,8.22
2022-11-14T05:19:05.513Z,8.21
2022-11-14T05:23:26.424Z,8.29
2022-11-14T05:27:46.502Z,8.21
2022-11-14T05:32:07.093Z,8.23
2022-11-14T05:36:27.185Z,8.33
2022-11-14T05:40:47.802Z,8.15
2022-11-14T05:45:08.480Z,8.18
2022-11-14T05:49:29.211Z,8.29
2022-11-14T05:53:49.199Z,8.20
2022-11-14T05:58:09.757Z,8.14
2022-11-14T06:02:30.136Z,8.22
2022-11-14T06:06:50.605Z,8.25
2022-11-14T06:11:16.906Z,8.38
2022-11-14T06:15:37.258Z,8.48
2022-11-14T06:19:57.335Z,8.37
2022-11-14T06:24:17.955Z,8.24
2022-11-14T06:28:38.033Z,8.23
2022-11-14T06:33:01.423Z,8.29
2022-11-14T06:37:21.594Z,8.23
2022-11-14T06:41:42.155Z,8.08
2022-11-14T06:46:03.132Z,8.27
2022-11-14T06:50:23.451Z,8.33
2022-11-14T06:54:43.702Z,8.25
2022-11-14T06:59:04.260Z,8.26
2022-11-14T07:03:24.316Z,8.15
2022-11-14T07:07:45.121Z,8.23
2022-11-14T07:12:05.669Z,8.19
2022-11-14T07:16:31.722Z,8.26
2022-11-14T07:21:01.227Z,8.26
2022-11-14T07:25:22.778Z,8.12
2022-11-14T07:29:42.975Z,8.09
2022-11-14T07:34:03.687Z,8.17
2022-11-14T07:38:24.453Z,8.07
2022-11-14T07:42:45.132Z,8.20
2022-11-14T07:47:05.358Z,8.25
2022-11-14T07:51:25.904Z,8.14
2022-11-14T07:55:45.904Z,8.10
2022-11-14T08:00:07.082Z,8.10
2022-11-14T08:04:27.461Z,8.00
2022-11-14T08:08:48.002Z,8.16
2022-11-14T08:13:31.109Z,8.17
2022-11-14T08:17:48.761Z,8.23
2022-11-14T08:22:08.948Z,8.21
2022-11-14T08:26:34.125Z,8.19
2022-11-14T08:31:00.229Z,8.11
2022-11-14T08:35:20.765Z,8.20
2022-11-14T08:39:40.819Z,8.24
2022-11-14T08:44:01.829Z,8.37
2022-11-14T08:48:22.167Z,8.23
2022-11-14T08:52:42.807Z,8.47
2022-11-14T08:57:03.081Z,8.35
2022-11-14T09:01:23.145Z,8.39
2022-11-14T09:05:43.376Z,8.32
2022-11-14T09:10:04.536Z,8.42
2022-11-14T09:14:24.902Z,8.44
2022-11-14T09:18:45.446Z,8.48
2022-11-14T09:23:06.013Z,8.42
2022-11-14T09:27:27.606Z,8.46
2022-11-14T09:31:48.195Z,8.31
2022-11-14T09:36:11.331Z,8.40
2022-11-14T09:40:43.574Z,8.39
2022-11-14T09:45:10.662Z,8.60
2022-11-14T09:49:46.250Z,8.48
2022-11-14T09:54:22.438Z,8.42
2022-11-14T09:58:43.061Z,8.31
2022-11-14T10:03:11.624Z,8.59
2022-11-14T10:07:51.492Z,8.49
2022-11-14T10:12:21.473Z,8.44
2022-11-14T10:17:05.238Z,8.58
2022-11-14T10:21:51.437Z,8.52
2022-11-14T10:26:24.578Z,8.49
2022-11-14T10:31:07.521Z,8.52
2022-11-14T10:35:42.485Z,8.45
2022-11-14T10:40:17.518Z,8.49
2022-11-14T10:44:53.917Z,8.50
2022-11-14T10:49:22.544Z,8.47
2022-11-14T10:54:23.836Z,8.55
2022-11-14T10:58:48.888Z,8.47
2022-11-14T11:03:10.045Z,8.35
2022-11-14T11:07:49.416Z,8.29
2022-11-14T11:12:16.523Z,8.28
2022-11-14T11:16:37.502Z,8.19
2022-11-14T11:21:07.098Z,8.05
2022-11-14T11:25:29.815Z,8.04
2022-11-14T11:30:19.005Z,8.04
2022-11-14T11:34:39.739Z,8.05
2022-11-14T11:39:00.177Z,8.18
2022-11-14T11:43:52.477Z,8.19
2022-11-14T11:48:23.128Z,8.18
2022-11-14T11:53:17.569Z,8.15
2022-11-14T11:58:06.738Z,8.18
2022-11-14T12:02:28.578Z,8.38
2022-11-14T12:07:14.792Z,8.37
2022-11-14T12:11:40.288Z,8.40
2022-11-14T12:16:27.455Z,8.40
2022-11-14T12:21:04.934Z,8.06
2022-11-14T12:25:46.603Z,8.08
2022-11-14T12:30:18.150Z,8.17
2022-11-14T12:34:42.114Z,8.12
2022-11-14T12:39:03.331Z,8.13
2022-11-14T12:43:36.837Z,8.17
2022-11-14T12:48:26.083Z,7.93
2022-11-14T12:52:54.962Z,7.86
2022-11-14T12:57:46.092Z,8.08
2022-11-14T13:02:52.092Z,8.08
2022-11-14T13:07:32.983Z,7.94
2022-11-14T13:12:12.856Z,7.90
2022-11-14T13:16:52.160Z,7.77
2022-11-14T13:21:46.252Z,7.68
2022-11-14T13:26:10.307Z,7.69
2022-11-14T13:31:07.973Z,7.55
2022-11-14T13:35:48.856Z,7.50
2022-11-14T13:40:23.475Z,7.72
2022-11-14T13:45:07.815Z,7.66
2022-11-14T13:49:54.175Z,7.52
2022-11-14T13:54:18.231Z,7.62
2022-11-14T13:59:00.741Z,7.42
2022-11-14T14:03:36.526Z,7.61
2022-11-14T14:08:16.694Z,7.65
2022-11-14T14:13:01.877Z,7.42
2022-11-14T14:18:13.323Z,7.55
2022-11-14T14:22:46.431Z,7.52
2022-11-14T14:27:14.772Z,7.53
2022-11-14T14:31:41.103Z,7.44
2022-11-14T14:36:01.540Z,7.46
2022-11-14T14:40:34.572Z,7.35
2022-11-14T14:44:56.406Z,7.42
2022-11-14T14:49:23.408Z,7.34
2022-11-14T14:53:52.588Z,7.29
2022-11-14T14:58:26.290Z,7.36
2022-11-14T15:02:46.687Z,7.48
2022-11-14T15:07:21.294Z,7.16
2022-11-14T15:11:44.386Z,7.09
2022-11-14T15:16:06.485Z,7.15
2022-11-14T15:20:29.204Z,7.22
2022-11-14T15:25:11.644Z,7.21
2022-11-14T15:29:33.155Z,7.16
2022-11-14T15:34:06.407Z,7.28
2022-11-14T15:44:01.731Z,7.36
2022-11-14T15:48:21.961Z,7.18
2022-11-14T15:52:59.032Z,7.18
2022-11-14T15:57:19.243Z,7.30
2022-11-14T16:01:40.364Z,7.27
2022-11-14T16:06:00.650Z,7.28
2022-11-14T16:10:26.454Z,7.27
2022-11-14T16:14:47.014Z,7.29
2022-11-14T16:19:07.837Z,7.32
2022-11-14T16:23:28.386Z,7.23
2022-11-14T16:27:49.120Z,7.04
2022-11-14T16:32:11.042Z,7.09
2022-11-14T16:36:32.098Z,7.03
2022-11-14T16:40:52.537Z,7.23
2022-11-14T16:45:12.728Z,7.12
2022-11-14T16:49:33.316Z,7.16
2022-11-14T16:53:56.772Z,7.27
2022-11-14T16:58:17.187Z,7.13
2022-11-14T17:02:39.762Z,7.11
2022-11-14T17:07:00.123Z,6.95
2022-11-14T17:11:21.632Z,7.01
2022-11-14T17:15:41.823Z,6.95
2022-11-14T17:20:02.432Z,7.15
2022-11-14T17:24:25.994Z,7.00
2022-11-14T17:28:49.172Z,6.80
2022-11-14T17:33:09.751Z,7.15
2022-11-14T17:37:30.367Z,7.20
2022-11-14T17:41:50.199Z,6.98
2022-11-14T17:46:15.927Z,7.05
2022-11-14T17:50:39.364Z,6.87
2022-11-14T17:54:59.847Z,7.09
2022-11-14T17:59:20.467Z,7.09
2022-11-14T18:03:41.161Z,7.08
2022-11-14T18:08:01.217Z,7.05
2022-11-14T18:12:21.635Z,6.91
2022-11-14T18:17:10.461Z,6.87
2022-11-14T18:21:24.625Z,7.04
2022-11-14T18:25:45.022Z,6.99
2022-11-14T18:30:26.715Z,6.86
2022-11-14T18:34:46.941Z,6.79
2022-11-14T18:39:07.653Z,6.71
2022-11-14T18:43:32.052Z,6.90
2022-11-14T18:47:52.663Z,6.87
2022-11-14T18:52:17.406Z,6.68
2022-11-14T18:56:38.671Z,6.69
2022-11-14T19:01:14.798Z,6.85
2022-11-14T19:05:35.947Z,6.75
2022-11-14T19:09:56.490Z,6.88
2022-11-14T19:14:17.804Z,6.79
2022-11-14T19:18:38.208Z,6.72
2022-11-14T19:22:58.817Z,6.66
2022-11-14T19:27:18.899Z,6.72
2022-11-14T19:31:40.785Z,6.85
2022-11-14T19:36:13.382Z,6.61
2022-11-14T19:40:36.509Z,6.63
2022-11-14T19:44:56.567Z,6.68
2022-11-14T19:49:17.156Z,6.52
2022-11-14T19:53:39.176Z,6.41
2022-11-14T19:57:59.348Z,6.55
2022-11-14T20:02:19.681Z,6.61
2022-11-14T20:06:41.571Z,6.61
2022-11-14T20:11:03.805Z,6.41
2022-11-14T20:15:24.543Z,6.37
2022-11-14T20:19:45.322Z,6.34
2022-11-14T20:24:06.318Z,6.42
2022-11-14T20:28:26.719Z,6.45
2022-11-14T20:32:47.332Z,6.52
2022-11-14T20:37:11.767Z,6.51
2022-11-14T20:41:32.866Z,6.36
2022-11-14T20:46:00.816Z,6.44
2022-11-14T20:50:21.615Z,6.41
2022-11-14T20:54:41.760Z,6.36
2022-11-14T20:59:02.477Z,6.34
2022-11-14T21:03:23.101Z,6.38
2022-11-14T21:07:43.855Z,6.37
2022-11-14T21:12:04.083Z,6.38
2022-11-14T21:16:29.695Z,6.28
2022-11-14T21:20:57.884Z,6.39
2022-11-14T21:25:18.325Z,6.36
2022-11-14T21:29:38.743Z,6.32
2022-11-14T21:34:01.633Z,6.29
2022-11-14T21:38:21.885Z,6.44
2022-11-14T21:42:42.899Z,6.25
2022-11-14T21:47:03.091Z,6.28
2022-11-14T21:51:26.482Z,6.18
2022-11-14T21:55:47.311Z,6.28
2022-11-14T22:00:08.201Z,6.24
2022-11-14T22:04:29.060Z,6.15
2022-11-14T22:08:53.098Z,6.17
2022-11-14T22:13:13.416Z,6.29
2022-11-14T22:17:33.499Z,6.33
2022-11-14T22:21:54.454Z,6.42
2022-11-14T22:26:14.985Z,6.20
2022-11-14T22:30:35.193Z,6.26
2022-11-14T22:34:55.425Z,6.11
2022-11-14T22:39:16.531Z,6.19
2022-11-14T22:43:36.746Z,6.23
2022-11-14T22:47:58.523Z,6.17
2022-11-14T22:52:18.681Z,6.04
2022-11-14T22:56:39.330Z,6.23
2022-11-14T23:00:59.858Z,6.15
2022-11-14T23:05:20.244Z,6.18
2022-11-14T23:09:40.479Z,6.16
2022-11-14T23:14:01.024Z,6.16
2022-11-14T23:18:23.758Z,6.06
2022-11-14T23:22:44.248Z,6.09
2022-11-14T23:27:04.619Z,6.17
2022-11-14T23:31:25.671Z,6.31
2022-11-14T23:35:45.825Z,6.40
2022-11-14T23:40:07.095Z,5.98
2022-11-14T23:44:27.506Z,5.99
2022-11-14T23:48:48.195Z,6.06
2022-11-14T23:53:08.245Z,6.00
2022-11-14T23:57:28.760Z,5.99
